Timeline UpdatesTrip UpdatesNews PostsPvt PostsTravel TipsAdmin PostsConv PostsFollowed PostsChat RequestsBlog PostsPNR Posts

Disclaimer
Search
 
 
Sun Aug 31, 2014 03:44:28 ISTHomeTrainsΣChainsAtlasPNRForumGalleryNewsFAQTripsMembersLoginFeedback
No Recent News for this Train
Other Trains in the News **new
Latest...
Will Reach MAS @ 04.25 Wef 01/07/2014.
Sat Jun 28, 2014 (08:32PM)
⇐ Return Journey: Train# 11028

11027/Mumbai CST-Chennai Mail

Yesterday (4:12PM)
Change Departure Station:
Change Arrival Station:
Post a Train Travel TipPost a Train Travel Tip **new
Post a Comment/Question/Picture/VideoPost a Comment/Question/Picture/Video
Pantry/Catering
✓ Pantry Car Avbl
✓ Catering Avbl
RSA - Rake Sharing
11042 Mumbai Express
Rake/Coach Composition
Loco ;SLR ,UR ,S1, S2, S3, S4, S5, S6, S7,PC ,S8,S9,S10,A1,B1 ,RMS ,UR,LDS ,S11 (S11 From Daund Junction To Solapur)
Loco
CSTM-PUNE: KYN WCAM-2P / 3 PUNE-GTL: GY WDM-3A/3D GTL-MAS: LGD WAP4
News    PNR    Forum    Time-Table    Availability    Fare Chart    Map    Arr/Dep History    Trips    Gallery    ΣChains    X/O    Timeline    
Travel Time: 2h 0m    2 halts    Distance: 92 km    Avg Speed: 46 km/hr
Type: Mail/Express
Zone: CR/Central
Departs @ 01:25 (Avg 28m late)
Platform# 1
SMTWTFS
Karjat Junction/KJT 
Arrives @ 03:25 (Avg 14m late)
Platform# 4
SMTWTFS
Pune Junction/PUNE 

2 halts. 24 intermediate Stations between Karjat Junction and Pune Junction

Show ALL intermediate Stations  Show Old Time-Table

#CodeStation NameX/OArrivesAvgDepartsAvgHaltPFDay#KmSpeedElevZoneAddress
1CSTMMumbai CST (18)  -23:45+3--1-99.96510mCRMumbai 400001, Maharashtra
2DRMumbai Dadar Central (8)  23:53+1123:55+112m51-91.3677mCRMumbai 400014, Maharashtra
3KYNKalyan Junction (8)  00:35+1600:40+175m52-46.96510mCRKalyan 421301, Maharashtra
4KJT»Karjat Junction (4)»X01:23+2401:25+282m120.03657mCRKarjat, Maharashtra
5LNLLonavala (3)02:13+1402:15+152m2228.680623mCRLonavala 410401, Maharashtra
6KKKhadki (3)X  02:58+2403:00+232m1286.314562mCRPune 411003, Maharashtra
7PUNE•Pune Junction (6)•03:25+1403:35+2310m4292.350556mCRPune 411001, Maharashtra
8DDDaund Junction (7)05:05+705:15+1610m32167.972521mCRNew Daund Dist. Pune 413801, Maharashtra
9BGVNBhigwan (2)X  05:38+2105:40+252m12195.558509mCRDaund, Maharashtra
10JEURJeur (1)XO  06:28+4106:30+452m12241.654526mCRJeur, Maharashtra
11KEMKem (2)O  06:48+4406:50+482m12257.727548mCRKem, Maharashtra
12KWVKurduvadi Junction (4)XO  07:30+3507:32+402m22275.860516mCRKurduvadi Dist-Solapur, Maharashtra
13MAMadha (2)O  07:48+4107:50+422m22291.762481mCRSolapur, Maharashtra
14MOMohol (2)  08:19+4108:21+432m12321.537458mCRSolapur, Maharashtra
15SURSolapur (5)09:15+2309:25+3210m12354.864461mCRSolapur 413001, Maharashtra
16HGHotgi Junction (3)X  09:39+3809:41+392m22369.881473mCRHotgi 413215, Maharashtra
17AKORAkalkot Road (2)  09:56+4409:58+442m12390.167456mCRDist Solapur, Maharashtra
18DUDDudhani (2)X  10:23+4810:25+492m12418.066457mCRSolapur, Maharashtra
19GURGanagapur Road  10:46+4910:48+502m12441.040445mCRDist Gulbarga, Karnataka
20GRGulbarga (4)  11:28+3411:30+352m32467.457458mCRGulbarga 585101, Karnataka
21SDBShahabad (3)X  11:58+3012:00+302m22494.112403mCRShahabad, Karnataka
22WADIWadi Junction (4)  12:50+312:55+45m22504.263431mCRWadi, Karnataka
23NWNalwar (2)  13:08+1213:10+112m22517.969406mSCRGulbarga, Karnataka
24YGYadgir (3)  13:32+1113:34+112m12543.382369mSCRYadgir, Karnataka
25SADPSaidapur (3)  13:51+1713:53+172m12566.481377mSCRYadgir Dist., Karnataka
26KSNKrishna (2)  14:08+2114:10+212m12586.735352mSCRDist Mahabubnagar, Telangana
27RCRaichur Junction (3)  14:53+1014:55+142m12611.8129406mSCRRaichur, Karnataka
28MTUMatmariX  15:03+2415:05+252m12629.129371mSCRRaichur, Karnataka
29MALMMantralayam Road (3)X  15:28+1515:30+272m12640.244335mSCRKurnool Tel: 08512-259830, Andhra Pradesh
30KOKosigi (2)X  15:48+2515:50+262m12653.446379mSCRKurnool Dist., Andhra Pradesh
31KGLKupgal (2)  16:08+2216:10+222m12667.118417mSCRKurnool Dist., Andhra Pradesh
32ADAdoni (4)  16:58+517:00+62m12681.571420mSCRAdoni Tel: 08512-252368, Andhra Pradesh
33NRRNagarur (2)  17:08+1217:10+112m12691.057427mSCRKurnool, Andhra Pradesh
34GTLGuntakal Junction (6)17:55+1818:15+2120m22733.569453mSCRGuntakal. Tel: 08552-227131/32, Andhra Pradesh
35GYGooty Junction (2)  18:40+2918:42+302m--2762.179370mSCRNH 7 Anantapur District, Andhra Pradesh
36RLORayala Cheruvu (2)  19:00+3819:02+372m--2785.757292mSCRRayalacheruvu, Andhra Pradesh
37TUTadipatri (3)19:28+3719:30+372m--2810.251243mSCRAnantapuram Dist, Andhra Pradesh
38KDPKondapuram (2)  20:03+3220:05+312m--2838.279214mSCRKadapa (YSR District), Andhra Pradesh
39MOOMuddanuru (3)  20:23+3620:25+362m--2861.875194mSCRKadapa (YSR District), Andhra Pradesh
40YAYerraguntla (2)  20:38+4220:40+422m--2878.151171mSCRKadapa / Cuddapah (YSR District), Andhra Pradesh
41KKMKamalapuram (2)  20:58+4521:00+462m--2893.543141mSCRKadapa (YSR District), Andhra Pradesh
42HXKadapa (3)  21:33+3821:35+422m12917.251146mSCRCuddapah, Andhra Pradesh
43NRENandalur  22:23+3222:25+322m--2957.735143mSCRRayalaseema Region, Andhra Pradesh
44RJPRazampeta (2)  22:43+2922:45+292m--2968.272144mSCRKadapa (YSR District), Andhra Pradesh
45KOUKoduru (2)  23:13+3123:15+312m--21001.825215mSCRKadapa (YSR District), Andhra Pradesh
46RURenigunta Junction (5)X  00:55+601:00+75m131042.661113mSCRChittoor District, Andhra Pradesh
47PUTPuttur (3)  01:23+1601:25+162m--31066.155149mSRPuttur, Andhra Pradesh
48TRTTiruttani (3)  01:58+1002:00+112m331096.44384mSRTiruttani, Tamil Nadu
49AJJArakkonam Junction (8)  02:20+1102:25+115m--31110.77091mSRArakkonam, Tamil Nadu
50TRLTiruvallur (6)  02:48+1502:50+152m--31137.76650mSRTiruvallur, Tamil Nadu
51PERPerambur (4)XO  03:23+1203:25+122m--31173.967mSRChennai-600011 Phone: 044-25510359, Tamil Nadu
52MASChennai Central (12)  04:25+2-131179.4-9mSRChennai 600003, Tamil Nadu
Scroll to Top
Scroll to Bottom